Time;durP1;ratioP1;P1;durP2;ratioP2;P2;SDS_P1;SDS_P2;PMS_P1;PMS_P2;Temp;Humidity;BMP_temperature;BMP_pressure;BME280_temperature;BME280_humidity;BME280_pressure;Samples;Min_cycle;Max_cycle;Signal;HPM_P1;HPM_P2
2021/07/15 00:00:27;;;;;;;1999.90;999.90;;;;;;;24.58;74.25;95524.06;4913128;29;20202;-69
2021/07/15 00:02:55;;;;;;;1999.90;999.90;;;;;;;24.52;74.98;95524.81;4912438;29;20297;-66
2021/07/15 00:05:24;;;;;;;1999.90;999.90;;;;;;;24.48;75.32;95518.75;4912748;29;20419;-68
2021/07/15 00:07:51;;;;;;;1999.90;999.90;;;;;;;24.43;75.71;95525.22;4913189;29;20679;-67
2021/07/15 00:10:22;;;;;;;1999.90;999.90;;;;;;;24.41;76.14;95527.47;4912998;29;20233;-72
2021/07/15 00:12:51;;;;;;;1999.90;999.90;;;;;;;24.37;76.63;95524.06;4912786;29;20254;-73
2021/07/15 00:15:21;;;;;;;1999.90;999.90;;;;;;;24.38;76.91;95523.69;4912749;29;20567;-73
2021/07/15 00:17:50;;;;;;;1999.90;999.90;;;;;;;24.38;77.31;95530.91;4914919;29;20212;-73
2021/07/15 00:20:18;;;;;;;1999.90;999.90;;;;;;;24.26;78.52;95532.03;4916271;29;20292;-74
2021/07/15 00:22:46;;;;;;;1999.90;999.90;;;;;;;24.25;78.51;95527.13;4916101;29;20683;-73
2021/07/15 00:25:15;;;;;;;1999.90;999.90;;;;;;;24.27;78.27;95528.25;4916035;29;20780;-73
2021/07/15 00:27:43;;;;;;;1999.90;999.90;;;;;;;24.23;79.46;95529.38;4916266;29;20682;-75
2021/07/15 00:30:11;;;;;;;1999.90;999.90;;;;;;;24.22;78.92;95525.97;4916258;29;20230;-74
2021/07/15 00:32:39;;;;;;;1999.90;999.90;;;;;;;24.22;79.43;95527.88;4915886;29;20273;-74
2021/07/15 00:35:10;;;;;;;1999.90;999.90;;;;;;;24.13;80.13;95532.78;4915819;29;20202;-74
2021/07/15 00:37:37;;;;;;;1999.90;999.90;;;;;;;24.10;81.08;95525.56;4915863;29;20288;-72
2021/07/15 00:40:07;;;;;;;1999.90;999.90;;;;;;;24.18;80.45;95524.47;4915416;29;20280;-73
2021/07/15 00:42:35;;;;;;;1999.90;999.90;;;;;;;24.08;81.18;95525.94;4915733;29;20208;-73
2021/07/15 00:45:02;;;;;;;1999.90;999.90;;;;;;;24.09;81.32;95524.81;4915566;29;20726;-73
2021/07/15 00:47:29;;;;;;;1999.90;999.90;;;;;;;24.01;82.29;95524.03;4916104;29;20280;-72
2021/07/15 00:49:57;;;;;;;1999.90;999.90;;;;;;;24.00;82.71;95517.22;4915813;29;20234;-72
2021/07/15 00:52:26;;;;;;;1999.90;999.90;;;;;;;23.95;83.11;95520.25;4915241;29;20261;-72
2021/07/15 00:54:54;;;;;;;1999.90;999.90;;;;;;;23.93;83.03;95522.53;4915343;29;20230;-73
2021/07/15 00:57:21;;;;;;;1999.90;999.90;;;;;;;23.98;83.17;95519.50;4915679;29;20725;-74
2021/07/15 00:59:50;;;;;;;1999.90;999.90;;;;;;;23.97;83.74;95515.31;4915144;29;20683;-74
2021/07/15 01:02:17;;;;;;;1999.90;999.90;;;;;;;23.97;83.81;95512.66;4915111;29;20301;-71
2021/07/15 01:04:44;;;;;;;1999.90;999.90;;;;;;;23.92;84.29;95515.69;4915071;29;20240;-73
2021/07/15 01:07:11;;;;;;;1999.90;999.90;;;;;;;23.84;84.64;95505.44;4915124;29;20233;-73
2021/07/15 01:09:40;;;;;;;1999.90;999.90;;;;;;;23.87;84.53;95510.75;4915129;29;20230;-72
2021/07/15 01:12:20;;;;;;;1999.90;999.90;;;;;;;23.78;85.24;95507.72;4914904;29;20205;-72
2021/07/15 01:15:00;;;;;;;1999.90;999.90;;;;;;;23.72;85.44;95511.88;4915186;29;20201;-71
2021/07/15 01:17:33;;;;;;;1999.90;999.90;;;;;;;23.59;86.42;95506.16;4915139;29;20292;-72
2021/07/15 01:20:33;;;;;;;1999.90;999.90;;;;;;;23.70;86.05;95508.84;4915149;29;20190;-73
2021/07/15 01:23:15;;;;;;;1999.90;999.90;;;;;;;23.68;86.56;95503.16;4915381;29;20194;-70
2021/07/15 01:26:09;;;;;;;1999.90;999.90;;;;;;;23.66;86.21;95512.63;4915130;29;20194;-72
2021/07/15 01:28:58;;;;;;;1999.90;999.90;;;;;;;23.51;87.22;95506.53;4912580;29;20205;-72
2021/07/15 01:31:28;;;;;;;1999.90;999.90;;;;;;;23.60;86.84;95506.94;4914886;29;20246;-73
2021/07/15 01:33:56;;;;;;;1999.90;999.90;;;;;;;23.69;86.37;95499.38;4914564;29;20598;-74
2021/07/15 01:36:24;;;;;;;1999.90;999.90;;;;;;;23.58;86.86;95501.22;4914863;29;20202;-74
2021/07/15 01:38:58;;;;;;;1999.90;999.90;;;;;;;23.50;87.63;95499.72;4920934;29;20682;-74
2021/07/15 01:41:29;;;;;;;1999.90;999.90;;;;;;;23.55;87.87;95512.59;4933373;29;20193;-73
2021/07/15 01:44:00;;;;;;;1999.90;999.90;;;;;;;23.62;87.26;95509.19;4933423;29;20193;-73
2021/07/15 01:46:29;;;;;;;1999.90;999.90;;;;;;;23.50;87.33;95511.09;4933595;29;20196;-71
2021/07/15 01:48:56;;;;;;;1999.90;999.90;;;;;;;23.48;87.45;95509.94;4933696;29;20241;-72
2021/07/15 01:51:23;;;;;;;1999.90;999.90;;;;;;;23.51;87.40;95511.84;4919151;29;20218;-72
2021/07/15 01:53:51;;;;;;;1999.90;999.90;;;;;;;23.50;88.17;95516.38;4914274;29;20213;-72
2021/07/15 01:56:19;;;;;;;1999.90;999.90;;;;;;;23.37;88.57;95512.50;4914461;29;20225;-72
2021/07/15 01:58:48;;;;;;;1999.90;999.90;;;;;;;23.43;88.05;95515.56;4914041;29;20683;-72
2021/07/15 02:01:15;;;;;;;1999.90;999.90;;;;;;;23.30;89.19;95512.50;4911869;29;20222;-72
2021/07/15 02:03:47;;;;;;;1999.90;999.90;;;;;;;23.35;89.02;95519.34;4910793;29;20210;-70
2021/07/15 02:06:15;;;;;;;1999.90;999.90;;;;;;;23.35;89.17;95511.38;4913164;29;20635;-70
2021/07/15 02:08:44;;;;;;;1999.90;999.90;;;;;;;23.29;89.30;95516.28;4913600;29;20312;-71
2021/07/15 02:11:12;;;;;;;1999.90;999.90;;;;;;;23.32;89.20;95520.06;4909620;29;20226;-70
2021/07/15 02:13:41;;;;;;;1999.90;999.90;;;;;;;23.30;89.00;95525.00;4912853;29;20257;-71
2021/07/15 02:16:09;;;;;;;1999.90;999.90;;;;;;;23.38;88.43;95521.22;4912888;29;20213;-71
2021/07/15 02:18:39;;;;;;;1999.90;999.90;;;;;;;23.31;88.69;95518.56;4910016;29;20671;-70
2021/07/15 02:21:08;;;;;;;1999.90;999.90;;;;;;;23.37;88.77;95527.66;4899641;29;20266;-70
2021/07/15 02:23:35;;;;;;;1999.90;999.90;;;;;;;23.24;88.80;95519.31;4894297;29;20699;-66
2021/07/15 02:26:05;;;;;;;1999.90;999.90;;;;;;;23.28;89.07;95525.38;4907553;29;20249;-70
2021/07/15 02:28:41;;;;;;;1999.90;999.90;;;;;;;23.27;88.78;95521.19;4914513;29;20238;-72
2021/07/15 02:31:14;;;;;;;1999.90;999.90;;;;;;;23.21;89.44;95524.59;4914723;29;20228;-72
2021/07/15 02:33:48;;;;;;;1999.90;999.90;;;;;;;23.31;88.20;95526.53;4913794;29;20571;-71
2021/07/15 02:36:19;;;;;;;1999.90;999.90;;;;;;;23.24;88.80;95523.84;4915310;29;20198;-71
2021/07/15 02:38:50;;;;;;;1999.90;999.90;;;;;;;23.23;88.72;95522.31;4914847;29;20214;-71
2021/07/15 02:41:17;;;;;;;1999.90;999.90;;;;;;;23.25;88.75;95514.75;4914139;29;20190;-71
2021/07/15 02:43:44;;;;;;;1999.90;999.90;;;;;;;23.26;88.82;95516.28;4914197;29;20465;-75
2021/07/15 02:46:11;;;;;;;1999.90;999.90;;;;;;;23.32;88.32;95507.56;4915693;29;20198;-71
2021/07/15 02:48:38;;;;;;;1999.90;999.90;;;;;;;23.15;88.78;95517.00;4913910;29;20229;-70
2021/07/15 02:51:05;;;;;;;1999.90;999.90;;;;;;;23.11;88.97;95516.22;4913549;29;20281;-70
2021/07/15 02:53:36;;;;;;;1999.90;999.90;;;;;;;23.08;89.53;95510.91;4913476;29;20846;-72
2021/07/15 02:56:12;;;;;;;1999.90;999.90;;;;;;;23.12;89.03;95512.44;4915080;29;20194;-73
2021/07/15 02:58:52;;;;;;;1999.90;999.90;;;;;;;23.02;89.43;95518.44;4900205;29;20248;-75
2021/07/15 03:01:25;;;;;;;1999.90;999.90;;;;;;;23.03;90.03;95514.66;4904380;29;20202;-73
2021/07/15 03:04:00;;;;;;;1999.90;999.90;;;;;;;23.05;90.23;95514.31;4894968;29;20245;-72
2021/07/15 03:06:35;;;;;;;1999.90;999.90;;;;;;;22.94;90.45;95518.78;4894586;29;20289;-75
2021/07/15 03:09:11;;;;;;;1999.90;999.90;;;;;;;22.93;90.88;95525.22;4910720;29;20284;-73
2021/07/15 03:11:43;;;;;;;1999.90;999.90;;;;;;;23.13;89.58;95518.50;4913086;29;20196;-74
2021/07/15 03:14:10;;;;;;;1999.90;999.90;;;;;;;22.94;90.74;95522.19;4912867;29;20234;-74
2021/07/15 03:16:42;;;;;;;1999.90;999.90;;;;;;;22.93;91.80;95519.91;4907753;29;20926;-74
2021/07/15 03:19:11;;;;;;;1999.90;999.90;;;;;;;22.98;91.52;95522.97;4898414;29;20206;-69
2021/07/15 03:21:42;;;;;;;1999.90;999.90;;;;;;;23.00;91.36;95520.72;4912620;29;20513;-68
2021/07/15 03:24:16;;;;;;;1999.90;999.90;;;;;;;23.08;90.88;95527.56;4915393;29;20233;-68
2021/07/15 03:26:46;;;;;;;1999.90;999.90;;;;;;;23.11;90.72;95515.47;4913742;29;20304;-68
2021/07/15 03:29:14;;;;;;;1999.90;999.90;;;;;;;23.07;90.36;95527.94;4912134;29;20221;-69
2021/07/15 03:31:42;;;;;;;1999.90;999.90;;;;;;;23.10;90.79;95517.38;4913157;29;20205;-72
2021/07/15 03:34:09;;;;;;;1999.90;999.90;;;;;;;23.17;89.88;95520.03;4913226;29;20201;-71
2021/07/15 03:36:40;;;;;;;1999.90;999.90;;;;;;;23.08;90.67;95526.81;4912926;29;20210;-75
2021/07/15 03:39:08;;;;;;;1999.90;999.90;;;;;;;23.07;90.19;95522.63;4909921;29;20206;-72
2021/07/15 03:41:38;;;;;;;1999.90;999.90;;;;;;;23.03;90.87;95527.94;4913059;29;20206;-75
2021/07/15 03:46:51;;;;;;;1999.90;999.90;;;;;;;23.11;90.23;95515.47;4909981;29;20209;-73
2021/07/15 03:49:20;;;;;;;1999.90;999.90;;;;;;;23.11;89.91;95523.44;4911492;29;20289;-71
2021/07/15 03:51:49;;;;;;;1999.90;999.90;;;;;;;23.11;89.76;95515.47;4912200;29;20221;-74
2021/07/15 03:54:20;;;;;;;1999.90;999.90;;;;;;;23.25;88.56;95514.75;4915758;29;20205;-75
2021/07/15 03:56:50;;;;;;;1999.90;999.90;;;;;;;23.17;89.04;95519.25;4915584;29;20198;-76
2021/07/15 03:59:20;;;;;;;1999.90;999.90;;;;;;;23.30;88.37;95517.81;4916478;29;20186;-75
2021/07/15 04:01:57;;;;;;;1999.90;999.90;;;;;;;23.25;88.21;95520.81;4913161;29;21257;-75
2021/07/15 04:04:28;;;;;;;1999.90;999.90;;;;;;;23.40;86.80;95524.28;4913127;29;20194;-75
2021/07/15 04:06:56;;;;;;;1999.90;999.90;;;;;;;23.39;86.49;95528.06;4913102;29;20186;-74
2021/07/15 04:09:25;;;;;;;1999.90;999.90;;;;;;;23.45;85.79;95531.91;4912998;29;20670;-74
2021/07/15 04:11:55;;;;;;;1999.90;999.90;;;;;;;23.42;86.43;95527.31;4914063;29;20907;-75
2021/07/15 04:14:41;;;;;;;1999.90;999.90;;;;;;;23.47;85.92;95516.38;4914409;29;20277;-74
2021/07/15 04:17:12;;;;;;;1999.90;999.90;;;;;;;23.51;85.74;95519.81;4915139;29;20692;-70
2021/07/15 04:19:40;;;;;;;1999.90;999.90;;;;;;;23.62;84.66;95517.91;4915723;29;20745;-71
2021/07/15 04:22:11;;;;;;;1999.90;999.90;;;;;;;23.66;83.88;95518.69;4915636;29;20595;-70
2021/07/15 04:24:41;;;;;;;1999.90;999.90;;;;;;;23.75;83.89;95521.00;4915817;29;20678;-71
2021/07/15 04:27:11;;;;;;;1999.90;999.90;;;;;;;23.94;83.00;95521.41;4915805;29;20217;-70
2021/07/15 04:29:41;;;;;;;1999.90;999.90;;;;;;;24.06;82.17;95522.16;4915360;29;20642;-71
2021/07/15 04:32:18;;;;;;;1999.90;999.90;;;;;;;24.20;81.04;95516.88;4915981;29;20206;-70
2021/07/15 04:34:47;;;;;;;1999.90;999.90;;;;;;;24.41;79.38;95519.50;4915784;29;20253;-71
2021/07/15 04:37:17;;;;;;;1999.90;999.90;;;;;;;24.65;77.56;95512.66;4915557;29;20241;-70
2021/07/15 04:39:45;;;;;;;1999.90;999.90;;;;;;;24.63;77.18;95520.25;4915627;29;20210;-71
2021/07/15 04:42:15;;;;;;;1999.90;999.90;;;;;;;24.77;76.63;95523.63;4915306;29;20214;-71
2021/07/15 04:44:44;;;;;;;1999.90;999.90;;;;;;;24.79;75.57;95515.28;4915632;29;20194;-70
2021/07/15 04:47:14;;;;;;;1999.90;999.90;;;;;;;24.87;75.31;95522.13;4907480;29;20214;-71
2021/07/15 04:49:41;;;;;;;1999.90;999.90;;;;;;;24.88;76.64;95515.66;4911398;29;20647;-71
2021/07/15 04:52:10;;;;;;;1999.90;999.90;;;;;;;25.14;73.83;95520.53;4915256;29;20210;-71
2021/07/15 04:54:38;;;;;;;1999.90;999.90;;;;;;;25.34;73.25;95528.81;4915192;29;20257;-71
2021/07/15 04:57:09;;;;;;;1999.90;999.90;;;;;;;25.36;72.53;95528.38;4915468;29;20304;-71
2021/07/15 04:59:39;;;;;;;1999.90;999.90;;;;;;;25.58;72.34;95530.59;4915470;29;20250;-71
2021/07/15 05:02:06;;;;;;;1999.90;999.90;;;;;;;25.71;71.18;95529.00;4914788;29;20296;-71
2021/07/15 05:04:34;;;;;;;1999.90;999.90;;;;;;;25.77;71.74;95532.00;4914842;29;20698;-71
2021/07/15 05:07:01;;;;;;;1999.90;999.90;;;;;;;25.96;70.02;95533.41;4913013;29;20269;-71
2021/07/15 05:09:28;;;;;;;1999.90;999.90;;;;;;;26.03;70.04;95538.69;4914934;29;20678;-71
2021/07/15 05:11:55;;;;;;;1999.90;999.90;;;;;;;26.15;68.63;95532.91;4914868;29;20229;-71
2021/07/15 05:14:22;;;;;;;1999.90;999.90;;;;;;;26.16;67.86;95537.06;4915120;29;20221;-71
2021/07/15 05:16:51;;;;;;;1999.90;999.90;;;;;;;26.02;69.12;95537.19;4915063;29;20665;-69
2021/07/15 05:19:18;;;;;;;1999.90;999.90;;;;;;;26.20;69.16;95543.16;4915206;29;20582;-71
2021/07/15 05:21:45;;;;;;;1999.90;999.90;;;;;;;26.22;68.71;95540.88;4914782;29;20202;-70
2021/07/15 05:24:12;;;;;;;1999.90;999.90;;;;;;;26.46;67.52;95542.56;4914942;29;20734;-70
2021/07/15 05:26:39;;;;;;;1999.90;999.90;;;;;;;26.57;67.96;95545.13;4914656;29;20257;-71
2021/07/15 05:29:06;;;;;;;1999.90;999.90;;;;;;;26.43;67.65;95548.69;4914598;29;20234;-72
2021/07/15 05:31:33;;;;;;;1999.90;999.90;;;;;;;26.57;65.46;95539.81;4914684;29;20229;-73
2021/07/15 05:34:01;;;;;;;1999.90;999.90;;;;;;;26.55;66.13;95548.19;4914416;29;20202;-72
2021/07/15 05:36:29;;;;;;;1999.90;999.90;;;;;;;26.55;66.50;95550.13;4914746;29;20209;-72
2021/07/15 05:38:56;;;;;;;1999.90;999.90;;;;;;;26.55;65.28;95550.84;4914647;29;20198;-72
2021/07/15 05:41:23;;;;;;;1999.90;999.90;;;;;;;26.73;65.44;95548.03;4914332;29;20265;-72
2021/07/15 05:43:50;;;;;;;1999.90;999.90;;;;;;;26.91;66.52;95553.97;4914519;29;20264;-72
2021/07/15 05:46:17;;;;;;;1999.90;999.90;;;;;;;26.97;65.20;95544.41;4914601;29;20216;-72
2021/07/15 05:48:44;;;;;;;1999.90;999.90;;;;;;;27.08;65.13;95544.28;4914513;29;20270;-72
2021/07/15 05:51:13;;;;;;;1999.90;999.90;;;;;;;27.11;63.74;95546.16;4914338;29;20698;-72
2021/07/15 05:53:40;;;;;;;1999.90;999.90;;;;;;;27.22;64.33;95536.09;4914512;29;20309;-72
2021/07/15 05:56:07;;;;;;;1999.90;999.90;;;;;;;27.41;63.68;95532.81;4914325;29;20198;-71
2021/07/15 05:58:34;;;;;;;1999.90;999.90;;;;;;;27.40;63.27;95533.97;4914410;29;20257;-71
2021/07/15 06:01:01;;;;;;;1999.90;999.90;;;;;;;27.52;62.54;95545.31;4914469;29;20679;-71
2021/07/15 06:03:28;;;;;;;1999.90;999.90;;;;;;;27.63;62.48;95543.25;4913378;29;20293;-71
2021/07/15 06:05:55;;;;;;;1999.90;999.90;;;;;;;27.58;62.14;95549.81;4914209;29;20281;-72
2021/07/15 06:08:24;;;;;;;1999.90;999.90;;;;;;;27.35;63.41;95539.75;4914195;29;20265;-71
2021/07/15 06:10:51;;;;;;;1999.90;999.90;;;;;;;27.54;63.93;95538.41;4914095;29;20233;-72
2021/07/15 06:13:18;;;;;;;1999.90;999.90;;;;;;;27.61;63.60;95540.97;4913772;29;20719;-72
2021/07/15 06:15:45;;;;;;;1999.90;999.90;;;;;;;27.66;63.74;95543.19;4912895;29;20210;-71
2021/07/15 06:18:12;;;;;;;1999.90;999.90;;;;;;;27.62;64.27;95534.50;4914039;29;20205;-72
2021/07/15 06:20:39;;;;;;;1999.90;999.90;;;;;;;27.95;62.64;95535.53;4913676;29;20206;-72
2021/07/15 06:23:06;;;;;;;1999.90;999.90;;;;;;;28.01;62.96;95538.53;4913854;29;20205;-71
2021/07/15 06:25:34;;;;;;;1999.90;999.90;;;;;;;28.14;62.69;95528.81;4913798;29;20210;-72
2021/07/15 06:28:01;;;;;;;1999.90;999.90;;;;;;;28.28;60.76;95522.47;4913512;29;20206;-71
2021/07/15 06:30:28;;;;;;;1999.90;999.90;;;;;;;28.33;61.82;95519.34;4913353;29;20202;-71
2021/07/15 06:32:57;;;;;;;1999.90;999.90;;;;;;;28.49;61.13;95516.78;4913741;29;20206;-71
2021/07/15 06:35:24;;;;;;;1999.90;999.90;;;;;;;28.46;60.71;95514.91;4913545;29;20205;-72
2021/07/15 06:37:53;;;;;;;1999.90;999.90;;;;;;;28.28;60.77;95517.13;4913309;29;20687;-71
2021/07/15 06:40:21;;;;;;;1999.90;999.90;;;;;;;28.24;61.09;95511.84;4913618;29;20202;-71
2021/07/15 06:42:50;;;;;;;1999.90;999.90;;;;;;;28.35;61.26;95517.75;4913636;29;20202;-72
2021/07/15 06:45:18;;;;;;;1999.90;999.90;;;;;;;28.38;62.35;95511.63;4913490;29;20221;-72
2021/07/15 06:47:46;;;;;;;1999.90;999.90;;;;;;;28.54;61.37;95501.00;4913220;29;20265;-72
2021/07/15 06:50:15;;;;;;;1999.90;999.90;;;;;;;28.67;61.50;95507.28;4913447;29;20632;-72
2021/07/15 06:52:43;;;;;;;1999.90;999.90;;;;;;;28.79;60.92;95500.63;4913173;29;20217;-72
2021/07/15 06:55:11;;;;;;;1999.90;999.90;;;;;;;29.00;60.71;95502.09;4913166;29;20209;-73
2021/07/15 06:57:38;;;;;;;1999.90;999.90;;;;;;;29.05;59.39;95507.75;4913276;29;20719;-72
2021/07/15 07:00:11;;;;;;;1999.90;999.90;;;;;;;28.97;58.60;95505.63;4913401;29;20451;-72
2021/07/15 07:02:39;;;;;;;1999.90;999.90;;;;;;;28.93;58.57;95502.25;4913006;29;20937;-72
2021/07/15 07:05:07;;;;;;;1999.90;999.90;;;;;;;29.01;58.30;95498.28;4913296;29;20201;-72
2021/07/15 07:07:35;;;;;;;1999.90;999.90;;;;;;;29.26;58.33;95497.78;4912999;29;20206;-72
2021/07/15 07:10:02;;;;;;;1999.90;999.90;;;;;;;29.31;56.45;95492.72;4913074;29;20675;-72
2021/07/15 07:12:29;;;;;;;1999.90;999.90;;;;;;;29.40;57.16;95492.16;4912861;29;20237;-72
2021/07/15 07:14:56;;;;;;;1999.90;999.90;;;;;;;29.43;57.49;95494.00;4913110;29;20583;-71
2021/07/15 07:17:24;;;;;;;1999.90;999.90;;;;;;;29.56;56.11;95486.81;4912901;29;21017;-71
2021/07/15 07:19:51;;;;;;;1999.90;999.90;;;;;;;29.67;56.35;95489.28;4912779;29;20202;-72
2021/07/15 07:22:18;;;;;;;1999.90;999.90;;;;;;;29.63;55.14;95494.72;4912777;29;20201;-72
2021/07/15 07:24:45;;;;;;;1999.90;999.90;;;;;;;29.54;55.58;95486.47;4912728;29;20206;-72
2021/07/15 07:27:13;;;;;;;1999.90;999.90;;;;;;;29.65;53.93;95481.66;4912489;29;20265;-72
2021/07/15 07:29:40;;;;;;;1999.90;999.90;;;;;;;29.70;55.39;95480.41;4912715;29;20198;-71
2021/07/15 07:32:07;;;;;;;1999.90;999.90;;;;;;;29.93;54.31;95474.94;4913183;29;20249;-72
2021/07/15 07:34:36;;;;;;;1999.90;999.90;;;;;;;29.96;53.50;95478.69;4913252;29;20202;-72
2021/07/15 07:37:03;;;;;;;1999.90;999.90;;;;;;;29.98;53.51;95476.34;4912750;29;20202;-72
2021/07/15 07:39:30;;;;;;;1999.90;999.90;;;;;;;30.13;52.09;95470.22;4912986;29;20277;-72
2021/07/15 07:41:58;;;;;;;1999.90;999.90;;;;;;;30.08;51.83;95468.06;4913155;29;20209;-73
2021/07/15 07:44:25;;;;;;;1999.90;999.90;;;;;;;30.14;52.33;95461.00;4912786;29;20257;-72
2021/07/15 07:46:52;;;;;;;1999.90;999.90;;;;;;;30.29;52.04;95464.06;4912808;29;20742;-72
2021/07/15 07:49:19;;;;;;;1999.90;999.90;;;;;;;30.42;51.14;95472.94;4912994;29;20210;-71
2021/07/15 07:51:48;;;;;;;1999.90;999.90;;;;;;;30.68;48.61;95471.16;4912811;29;20596;-72
2021/07/15 07:54:15;;;;;;;1999.90;999.90;;;;;;;30.74;50.19;95462.16;4912582;29;20202;-72
2021/07/15 07:56:42;;;;;;;1999.90;999.90;;;;;;;30.57;51.60;95460.72;4912746;29;20276;-72
2021/07/15 07:59:10;;;;;;;1999.90;999.90;;;;;;;30.77;49.97;95461.31;4912793;29;20210;-71
2021/07/15 08:01:39;;;;;;;1999.90;999.90;;;;;;;31.01;48.43;95459.13;4911799;29;20244;-72
2021/07/15 08:04:06;;;;;;;1999.90;999.90;;;;;;;31.08;50.16;95458.22;4912701;29;20215;-71
2021/07/15 08:06:36;;;;;;;1999.90;999.90;;;;;;;31.17;49.66;95458.31;4912641;29;20209;-72
2021/07/15 08:09:06;;;;;;;1999.90;999.90;;;;;;;31.33;49.70;95455.56;4912841;29;20308;-72
2021/07/15 08:11:33;;;;;;;1999.90;999.90;;;;;;;31.38;48.48;95456.94;4912341;29;20704;-72
2021/07/15 08:14:00;;;;;;;1999.90;999.90;;;;;;;31.19;49.23;95450.56;4912288;29;20272;-73
2021/07/15 08:16:27;;;;;;;1999.90;999.90;;;;;;;31.28;47.51;95450.72;4912863;29;20730;-79
2021/07/15 08:18:54;;;;;;;1999.90;999.90;;;;;;;31.26;48.36;95446.94;4912552;29;20587;-73
2021/07/15 08:21:22;;;;;;;1999.90;999.90;;;;;;;31.36;49.05;95446.63;4912686;29;20198;-74
2021/07/15 08:23:50;;;;;;;1999.90;999.90;;;;;;;31.46;47.29;95450.19;4912526;29;20209;-73
2021/07/15 08:26:18;;;;;;;1999.90;999.90;;;;;;;31.41;48.48;95448.78;4912644;29;20663;-73
2021/07/15 08:28:46;;;;;;;1999.90;999.90;;;;;;;31.59;47.20;95445.56;4912522;29;20206;-72
2021/07/15 08:31:13;;;;;;;1999.90;999.90;;;;;;;31.53;47.70;95439.94;4912535;29;20230;-72
2021/07/15 08:33:40;;;;;;;1999.90;999.90;;;;;;;31.68;47.85;95437.63;4912373;29;20237;-72
2021/07/15 08:36:07;;;;;;;1999.90;999.90;;;;;;;31.56;46.86;95428.38;4912148;29;20202;-72
2021/07/15 08:38:34;;;;;;;1999.90;999.90;;;;;;;31.85;48.46;95438.25;4913774;29;20209;-71
2021/07/15 08:41:01;;;;;;;1999.90;999.90;;;;;;;32.03;46.28;95438.44;4915544;29;20212;-72
2021/07/15 08:43:31;;;;;;;1999.90;999.90;;;;;;;32.19;44.33;95432.91;4915383;29;20209;-71
2021/07/15 08:45:59;;;;;;;1999.90;999.90;;;;;;;32.16;45.73;95420.34;4915489;29;20217;-72
2021/07/15 08:48:28;;;;;;;1999.90;999.90;;;;;;;32.07;45.85;95425.63;4915374;29;20297;-72
2021/07/15 08:50:55;;;;;;;1999.90;999.90;;;;;;;32.21;44.96;95424.44;4915421;29;20763;-72
2021/07/15 08:53:26;;;;;;;1999.90;999.90;;;;;;;32.15;45.85;95423.47;4915668;29;20257;-71
2021/07/15 08:58:43;;;;;;;1999.90;999.90;;;;;;;32.57;43.95;95423.97;4915351;29;20669;-71
2021/07/15 09:01:12;;;;;;;1999.90;999.90;;;;;;;32.49;45.16;95423.44;4915485;29;20206;-71
2021/07/15 09:03:39;;;;;;;1999.90;999.90;;;;;;;32.53;44.17;95417.97;4877793;29;20299;-72
2021/07/15 09:06:06;;;;;;;1999.90;999.90;;;;;;;32.44;44.95;95414.00;4877818;29;20207;-71
2021/07/15 09:08:34;;;;;;;1999.90;999.90;;;;;;;32.54;43.39;95422.13;4877778;29;20200;-72
2021/07/15 09:11:03;;;;;;;1999.90;999.90;;;;;;;32.81;43.49;95414.28;4877639;29;20214;-71
2021/07/15 09:13:31;;;;;;;1999.90;999.90;;;;;;;32.72;43.21;95411.53;4877693;29;20294;-71
2021/07/15 09:16:00;;;;;;;1999.90;999.90;;;;;;;32.95;44.77;95413.75;4877722;29;20203;-71
2021/07/15 09:18:27;;;;;;;1999.90;999.90;;;;;;;32.91;44.78;95413.16;4877382;29;20211;-71
2021/07/15 09:20:54;;;;;;;1999.90;999.90;;;;;;;33.23;42.87;95401.19;4877335;29;20207;-71
2021/07/15 09:23:21;;;;;;;1999.90;999.90;;;;;;;33.23;40.71;95407.34;4877495;29;20259;-71
2021/07/15 09:25:57;;;;;;;1999.90;999.90;;;;;;;33.20;42.18;95402.09;4877740;29;20246;-72
2021/07/15 09:28:32;;;;;;;1999.90;999.90;;;;;;;33.02;42.10;95402.75;4877208;29;20206;-71
2021/07/15 09:31:19;;;;;;;1999.90;999.90;;;;;;;33.16;44.05;95399.53;4877202;29;21053;-72
2021/07/15 09:33:47;;;;;;;1999.90;999.90;;;;;;;33.40;43.56;95399.03;4877126;29;20191;-72
2021/07/15 09:36:19;;;;;;;1999.90;999.90;;;;;;;33.24;41.50;95395.38;4877089;29;20199;-72
2021/07/15 09:38:48;;;;;;;1999.90;999.90;;;;;;;33.12;43.32;95396.22;4877289;29;20196;-72
2021/07/15 09:41:20;;;;;;;1999.90;999.90;;;;;;;33.47;42.54;95394.13;4877175;29;20652;-71
2021/07/15 09:43:48;;;;;;;1999.90;999.90;;;;;;;33.82;40.81;95392.00;4876885;29;21003;-72
2021/07/15 09:46:23;;;;;;;1999.90;999.90;;;;;;;33.88;39.22;95390.19;4876889;29;20199;-71
2021/07/15 09:49:02;;;;;;;1999.90;999.90;;;;;;;33.83;38.65;95388.06;4877004;29;20199;-71
2021/07/15 09:51:39;;;;;;;1999.90;999.90;;;;;;;34.03;40.66;95374.91;4876976;29;20290;-71
2021/07/15 09:54:07;;;;;;;1999.90;999.90;;;;;;;34.07;39.60;95380.91;4876886;29;20251;-71
2021/07/15 09:56:42;;;;;;;1999.90;999.90;;;;;;;34.11;41.86;95376.13;4876762;29;20210;-71
2021/07/15 09:59:09;;;;;;;1999.90;999.90;;;;;;;34.13;40.05;95372.97;4876941;29;20341;-71
2021/07/15 10:01:45;;;;;;;1999.90;999.90;;;;;;;34.20;40.71;95369.25;4882822;29;20711;-72
2021/07/15 10:04:12;;;;;;;1999.90;999.90;;;;;;;34.46;40.36;95367.75;4914571;29;20197;-71
2021/07/15 10:06:46;;;;;;;1999.90;999.90;;;;;;;34.65;39.25;95374.63;4914200;29;20206;-72
2021/07/15 10:09:21;;;;;;;1999.90;999.90;;;;;;;34.21;39.67;95373.47;4913526;29;20201;-72
2021/07/15 10:11:48;;;;;;;1999.90;999.90;;;;;;;34.35;38.74;95367.44;4913669;29;20225;-71
2021/07/15 10:14:17;;;;;;;1999.90;999.90;;;;;;;34.35;39.15;95368.19;4913828;29;20285;-72
2021/07/15 10:16:47;;;;;;;1999.90;999.90;;;;;;;34.39;39.37;95360.69;4913747;29;20205;-72
2021/07/15 10:19:19;;;;;;;1999.90;999.90;;;;;;;34.41;38.10;95352.91;4913772;29;20654;-71
2021/07/15 10:21:47;;;;;;;1999.90;999.90;;;;;;;34.52;38.52;95352.44;4913690;29;20202;-71
2021/07/15 10:24:20;;;;;;;1999.90;999.90;;;;;;;34.36;39.41;95347.38;4914039;29;20202;-71
2021/07/15 10:26:49;;;;;;;1999.90;999.90;;;;;;;34.46;40.05;95346.91;4914250;29;20211;-71
2021/07/15 10:29:18;;;;;;;1999.90;999.90;;;;;;;34.58;38.52;95345.22;4913701;29;20270;-72
2021/07/15 10:31:47;;;;;;;1999.90;999.90;;;;;;;34.62;40.04;95343.13;4913785;29;20205;-71
2021/07/15 10:34:15;;;;;;;1999.90;999.90;;;;;;;34.70;39.12;95338.19;4913942;29;20205;-71
2021/07/15 10:36:43;;;;;;;1999.90;999.90;;;;;;;34.70;41.12;95333.53;4913517;29;20268;-71
2021/07/15 10:39:13;;;;;;;1999.90;999.90;;;;;;;34.71;40.21;95326.94;4913839;29;20202;-70
2021/07/15 10:41:44;;;;;;;1999.90;999.90;;;;;;;34.36;39.09;95323.06;4913665;29;20278;-70
2021/07/15 10:44:11;;;;;;;1999.90;999.90;;;;;;;34.70;40.22;95327.38;4913760;29;20190;-71
2021/07/15 10:46:39;;;;;;;1999.90;999.90;;;;;;;34.84;38.70;95327.47;4913267;29;20209;-71
2021/07/15 10:49:09;;;;;;;1999.90;999.90;;;;;;;34.98;37.14;95316.00;4913342;29;20201;-71
2021/07/15 10:51:37;;;;;;;1999.90;999.90;;;;;;;35.01;39.30;95329.81;4913246;29;20214;-71
2021/07/15 10:54:05;;;;;;;1999.90;999.90;;;;;;;35.39;38.46;95327.25;4913456;29;20284;-71
2021/07/15 10:56:33;;;;;;;1999.90;999.90;;;;;;;35.55;38.59;95329.56;4913224;29;20264;-71
2021/07/15 10:59:01;;;;;;;1999.90;999.90;;;;;;;35.41;38.67;95324.84;4913452;29;20210;-71
2021/07/15 11:01:40;;;;;;;1999.90;999.90;;;;;;;35.27;37.52;95322.84;4912382;29;20654;-72
2021/07/15 11:04:10;;;;;;;1999.90;999.90;;;;;;;35.50;37.51;95313.22;4913488;29;20269;-72
2021/07/15 11:06:41;;;;;;;1999.90;999.90;;;;;;;35.39;36.25;95311.78;4913684;29;20217;-74
2021/07/15 11:09:10;;;;;;;1999.90;999.90;;;;;;;35.37;36.32;95318.84;4913918;29;20198;-72